sensor_id;sensor_type;location;lat;lon;timestamp;temperature;humidity
39099;DHT22;24844;52.380;7.018;2023-11-19T00:01:36;11.40;99.90
39099;DHT22;24844;52.380;7.018;2023-11-19T00:04:02;11.80;99.90
39099;DHT22;24844;52.380;7.018;2023-11-19T00:06:30;11.20;99.90
39099;DHT22;24844;52.380;7.018;2023-11-19T00:08:55;11.80;99.90
39099;DHT22;24844;52.380;7.018;2023-11-19T00:11:21;11.60;99.90
39099;DHT22;24844;52.380;7.018;2023-11-19T00:13:46;11.70;99.90
39099;DHT22;24844;52.380;7.018;2023-11-19T00:16:12;12.00;99.90
39099;DHT22;24844;52.380;7.018;2023-11-19T00:18:37;12.10;99.90
39099;DHT22;24844;52.380;7.018;2023-11-19T00:21:03;11.90;99.90
39099;DHT22;24844;52.380;7.018;2023-11-19T00:23:29;11.90;99.90
39099;DHT22;24844;52.380;7.018;2023-11-19T00:25:54;11.60;99.90
39099;DHT22;24844;52.380;7.018;2023-11-19T00:28:20;11.70;99.90
39099;DHT22;24844;52.380;7.018;2023-11-19T00:30:45;11.50;99.90
39099;DHT22;24844;52.380;7.018;2023-11-19T00:33:11;11.70;99.90
39099;DHT22;24844;52.380;7.018;2023-11-19T00:35:36;11.90;99.90
39099;DHT22;24844;52.380;7.018;2023-11-19T00:38:02;12.30;99.90
39099;DHT22;24844;52.380;7.018;2023-11-19T00:40:29;11.80;99.90
39099;DHT22;24844;52.380;7.018;2023-11-19T00:42:54;12.20;99.90
39099;DHT22;24844;52.380;7.018;2023-11-19T00:45:20;12.20;99.90
39099;DHT22;24844;52.380;7.018;2023-11-19T00:47:46;12.50;99.90
39099;DHT22;24844;52.380;7.018;2023-11-19T00:50:11;12.00;99.90
39099;DHT22;24844;52.380;7.018;2023-11-19T00:52:38;12.50;99.90
39099;DHT22;24844;52.380;7.018;2023-11-19T00:55:05;12.50;99.90
39099;DHT22;24844;52.380;7.018;2023-11-19T00:57:31;12.30;99.90
39099;DHT22;24844;52.380;7.018;2023-11-19T00:59:58;12.00;99.90
39099;DHT22;24844;52.380;7.018;2023-11-19T01:02:24;12.30;99.90
39099;DHT22;24844;52.380;7.018;2023-11-19T01:04:49;12.40;99.90
39099;DHT22;24844;52.380;7.018;2023-11-19T01:07:15;12.20;99.90
39099;DHT22;24844;52.380;7.018;2023-11-19T01:09:44;12.20;99.90
39099;DHT22;24844;52.380;7.018;2023-11-19T01:12:10;12.50;99.90
39099;DHT22;24844;52.380;7.018;2023-11-19T01:14:36;12.40;99.90
39099;DHT22;24844;52.380;7.018;2023-11-19T01:17:01;12.40;99.90
39099;DHT22;24844;52.380;7.018;2023-11-19T01:19:27;12.20;99.90
39099;DHT22;24844;52.380;7.018;2023-11-19T01:21:54;12.80;99.90
39099;DHT22;24844;52.380;7.018;2023-11-19T01:24:19;12.40;99.90
39099;DHT22;24844;52.380;7.018;2023-11-19T01:26:45;12.50;99.90
39099;DHT22;24844;52.380;7.018;2023-11-19T01:29:15;12.80;99.90
39099;DHT22;24844;52.380;7.018;2023-11-19T01:31:42;12.50;99.90
39099;DHT22;24844;52.380;7.018;2023-11-19T01:34:07;12.60;99.90
39099;DHT22;24844;52.380;7.018;2023-11-19T01:36:33;12.60;99.90
39099;DHT22;24844;52.380;7.018;2023-11-19T01:38:59;12.80;99.90
39099;DHT22;24844;52.380;7.018;2023-11-19T01:41:24;12.90;99.90
39099;DHT22;24844;52.380;7.018;2023-11-19T01:43:50;13.20;99.90
39099;DHT22;24844;52.380;7.018;2023-11-19T01:46:16;12.70;99.90
39099;DHT22;24844;52.380;7.018;2023-11-19T01:48:44;13.10;99.90
39099;DHT22;24844;52.380;7.018;2023-11-19T01:51:14;13.10;99.90
39099;DHT22;24844;52.380;7.018;2023-11-19T01:53:43;13.20;99.90
39099;DHT22;24844;52.380;7.018;2023-11-19T01:56:10;13.30;99.90
39099;DHT22;24844;52.380;7.018;2023-11-19T01:58:37;12.90;99.90
39099;DHT22;24844;52.380;7.018;2023-11-19T02:01:05;13.20;99.90
39099;DHT22;24844;52.380;7.018;2023-11-19T02:03:33;13.00;99.90
39099;DHT22;24844;52.380;7.018;2023-11-19T02:06:00;12.90;99.90
39099;DHT22;24844;52.380;7.018;2023-11-19T02:08:25;13.30;99.90
39099;DHT22;24844;52.380;7.018;2023-11-19T02:10:52;13.10;99.90
39099;DHT22;24844;52.380;7.018;2023-11-19T02:13:18;13.10;99.90
39099;DHT22;24844;52.380;7.018;2023-11-19T02:15:44;13.20;99.90
39099;DHT22;24844;52.380;7.018;2023-11-19T02:18:28;12.90;99.90
39099;DHT22;24844;52.380;7.018;2023-11-19T02:20:55;12.80;99.90
39099;DHT22;24844;52.380;7.018;2023-11-19T02:23:21;13.30;99.90
39099;DHT22;24844;52.380;7.018;2023-11-19T02:25:54;12.70;99.90
39099;DHT22;24844;52.380;7.018;2023-11-19T02:28:20;12.70;99.90
39099;DHT22;24844;52.380;7.018;2023-11-19T02:30:47;13.20;99.90
39099;DHT22;24844;52.380;7.018;2023-11-19T02:33:12;13.10;99.90
39099;DHT22;24844;52.380;7.018;2023-11-19T02:35:38;12.60;99.90
39099;DHT22;24844;52.380;7.018;2023-11-19T02:38:06;12.90;99.90
39099;DHT22;24844;52.380;7.018;2023-11-19T02:40:32;13.00;99.90
39099;DHT22;24844;52.380;7.018;2023-11-19T02:42:57;12.90;99.90
39099;DHT22;24844;52.380;7.018;2023-11-19T02:45:23;12.80;99.90
39099;DHT22;24844;52.380;7.018;2023-11-19T02:47:50;13.30;99.90
39099;DHT22;24844;52.380;7.018;2023-11-19T02:50:20;12.70;99.90
39099;DHT22;24844;52.380;7.018;2023-11-19T02:52:51;13.20;99.90
39099;DHT22;24844;52.380;7.018;2023-11-19T02:55:17;13.30;99.90
39099;DHT22;24844;52.380;7.018;2023-11-19T02:57:43;13.40;99.90
39099;DHT22;24844;52.380;7.018;2023-11-19T03:00:17;13.20;99.90
39099;DHT22;24844;52.380;7.018;2023-11-19T03:02:43;13.60;99.90
39099;DHT22;24844;52.380;7.018;2023-11-19T03:05:14;13.00;99.90
39099;DHT22;24844;52.380;7.018;2023-11-19T03:07:43;13.10;99.90
39099;DHT22;24844;52.380;7.018;2023-11-19T03:10:10;13.10;99.90
39099;DHT22;24844;52.380;7.018;2023-11-19T03:12:39;13.60;99.90
39099;DHT22;24844;52.380;7.018;2023-11-19T03:15:05;12.90;99.90
39099;DHT22;24844;52.380;7.018;2023-11-19T03:17:31;13.50;99.90
39099;DHT22;24844;52.380;7.018;2023-11-19T03:19:56;13.20;99.90
39099;DHT22;24844;52.380;7.018;2023-11-19T03:22:22;13.00;99.90
39099;DHT22;24844;52.380;7.018;2023-11-19T03:24:51;12.90;99.90
39099;DHT22;24844;52.380;7.018;2023-11-19T03:27:16;13.60;99.90
39099;DHT22;24844;52.380;7.018;2023-11-19T03:29:42;12.90;99.90
39099;DHT22;24844;52.380;7.018;2023-11-19T03:32:08;13.10;99.90
39099;DHT22;24844;52.380;7.018;2023-11-19T03:34:34;12.80;99.90
39099;DHT22;24844;52.380;7.018;2023-11-19T03:36:59;12.80;99.90
39099;DHT22;24844;52.380;7.018;2023-11-19T03:39:25;13.10;99.90
39099;DHT22;24844;52.380;7.018;2023-11-19T03:41:52;13.50;99.90
39099;DHT22;24844;52.380;7.018;2023-11-19T03:44:17;13.10;99.90
39099;DHT22;24844;52.380;7.018;2023-11-19T03:46:44;13.40;99.90
39099;DHT22;24844;52.380;7.018;2023-11-19T03:49:10;12.50;99.90
39099;DHT22;24844;52.380;7.018;2023-11-19T03:51:35;12.70;99.90
39099;DHT22;24844;52.380;7.018;2023-11-19T03:54:01;13.00;99.90
39099;DHT22;24844;52.380;7.018;2023-11-19T03:56:26;13.00;99.90
39099;DHT22;24844;52.380;7.018;2023-11-19T03:58:56;12.80;99.90
39099;DHT22;24844;52.380;7.018;2023-11-19T04:01:22;13.10;99.90
39099;DHT22;24844;52.380;7.018;2023-11-19T04:03:47;12.90;99.90
39099;DHT22;24844;52.380;7.018;2023-11-19T04:06:13;12.90;99.90
39099;DHT22;24844;52.380;7.018;2023-11-19T04:08:38;13.00;99.90
39099;DHT22;24844;52.380;7.018;2023-11-19T04:11:04;12.90;99.90
39099;DHT22;24844;52.380;7.018;2023-11-19T04:13:30;12.80;99.90
39099;DHT22;24844;52.380;7.018;2023-11-19T04:15:55;12.80;99.90
39099;DHT22;24844;52.380;7.018;2023-11-19T04:18:21;12.80;99.90
39099;DHT22;24844;52.380;7.018;2023-11-19T04:20:46;12.60;99.90
39099;DHT22;24844;52.380;7.018;2023-11-19T04:23:12;12.60;99.90
39099;DHT22;24844;52.380;7.018;2023-11-19T04:25:37;12.60;99.90
39099;DHT22;24844;52.380;7.018;2023-11-19T04:28:03;12.40;99.90
39099;DHT22;24844;52.380;7.018;2023-11-19T04:30:29;12.60;99.90
39099;DHT22;24844;52.380;7.018;2023-11-19T04:32:57;12.30;99.90
39099;DHT22;24844;52.380;7.018;2023-11-19T04:35:22;12.40;99.90
39099;DHT22;24844;52.380;7.018;2023-11-19T04:37:48;12.60;99.90
39099;DHT22;24844;52.380;7.018;2023-11-19T04:40:14;12.60;99.90
39099;DHT22;24844;52.380;7.018;2023-11-19T04:42:40;12.40;99.90
39099;DHT22;24844;52.380;7.018;2023-11-19T04:45:06;12.50;99.90
39099;DHT22;24844;52.380;7.018;2023-11-19T04:47:32;12.40;99.90
39099;DHT22;24844;52.380;7.018;2023-11-19T04:49:58;12.20;99.90
39099;DHT22;24844;52.380;7.018;2023-11-19T04:52:24;12.30;99.90
39099;DHT22;24844;52.380;7.018;2023-11-19T04:54:49;12.30;99.90
39099;DHT22;24844;52.380;7.018;2023-11-19T04:57:15;12.30;99.90
39099;DHT22;24844;52.380;7.018;2023-11-19T04:59:41;12.20;99.90
39099;DHT22;24844;52.380;7.018;2023-11-19T05:02:07;12.20;99.90
39099;DHT22;24844;52.380;7.018;2023-11-19T05:04:33;12.00;99.90
39099;DHT22;24844;52.380;7.018;2023-11-19T05:06:59;12.10;99.90
39099;DHT22;24844;52.380;7.018;2023-11-19T05:09:24;11.90;99.90
39099;DHT22;24844;52.380;7.018;2023-11-19T05:11:50;11.90;99.90
39099;DHT22;24844;52.380;7.018;2023-11-19T05:14:15;12.00;99.90
39099;DHT22;24844;52.380;7.018;2023-11-19T05:16:41;12.00;99.90
39099;DHT22;24844;52.380;7.018;2023-11-19T05:19:08;11.90;99.90
39099;DHT22;24844;52.380;7.018;2023-11-19T05:21:34;11.80;99.90
39099;DHT22;24844;52.380;7.018;2023-11-19T05:24:01;11.80;99.90
39099;DHT22;24844;52.380;7.018;2023-11-19T05:26:29;11.80;99.90
39099;DHT22;24844;52.380;7.018;2023-11-19T05:28:55;11.80;99.90
39099;DHT22;24844;52.380;7.018;2023-11-19T05:31:21;11.90;99.90
39099;DHT22;24844;52.380;7.018;2023-11-19T05:33:46;11.90;99.90
39099;DHT22;24844;52.380;7.018;2023-11-19T05:36:12;11.90;99.90
39099;DHT22;24844;52.380;7.018;2023-11-19T05:38:38;11.80;99.90
39099;DHT22;24844;52.380;7.018;2023-11-19T05:41:04;11.80;99.90
39099;DHT22;24844;52.380;7.018;2023-11-19T05:43:30;11.80;99.90
39099;DHT22;24844;52.380;7.018;2023-11-19T05:45:56;11.80;99.90
39099;DHT22;24844;52.380;7.018;2023-11-19T05:48:21;11.80;99.90
39099;DHT22;24844;52.380;7.018;2023-11-19T05:50:48;11.90;99.90
39099;DHT22;24844;52.380;7.018;2023-11-19T05:53:15;12.10;99.90
39099;DHT22;24844;52.380;7.018;2023-11-19T05:55:41;12.10;99.90
39099;DHT22;24844;52.380;7.018;2023-11-19T05:58:21;12.00;99.90
39099;DHT22;24844;52.380;7.018;2023-11-19T06:00:47;12.00;99.90
39099;DHT22;24844;52.380;7.018;2023-11-19T06:03:13;12.10;99.90
39099;DHT22;24844;52.380;7.018;2023-11-19T06:05:38;12.00;99.90
39099;DHT22;24844;52.380;7.018;2023-11-19T06:08:04;12.10;99.90
39099;DHT22;24844;52.380;7.018;2023-11-19T06:10:32;12.10;99.90
39099;DHT22;24844;52.380;7.018;2023-11-19T06:13:00;12.00;99.90
39099;DHT22;24844;52.380;7.018;2023-11-19T06:15:30;11.80;99.90
39099;DHT22;24844;52.380;7.018;2023-11-19T06:17:56;11.90;99.90
39099;DHT22;24844;52.380;7.018;2023-11-19T06:20:25;11.90;99.90
39099;DHT22;24844;52.380;7.018;2023-11-19T06:22:50;11.90;99.90
39099;DHT22;24844;52.380;7.018;2023-11-19T06:25:16;11.90;99.90
39099;DHT22;24844;52.380;7.018;2023-11-19T06:27:42;11.80;99.90
39099;DHT22;24844;52.380;7.018;2023-11-19T06:30:08;11.70;99.90
39099;DHT22;24844;52.380;7.018;2023-11-19T06:32:34;11.80;99.90
39099;DHT22;24844;52.380;7.018;2023-11-19T06:34:59;11.60;99.90
39099;DHT22;24844;52.380;7.018;2023-11-19T06:37:25;11.60;99.90
39099;DHT22;24844;52.380;7.018;2023-11-19T06:39:52;11.60;99.90
39099;DHT22;24844;52.380;7.018;2023-11-19T06:42:18;11.60;99.90
39099;DHT22;24844;52.380;7.018;2023-11-19T06:44:43;11.60;99.90
39099;DHT22;24844;52.380;7.018;2023-11-19T06:47:09;11.80;99.90
39099;DHT22;24844;52.380;7.018;2023-11-19T06:49:34;11.60;99.90
39099;DHT22;24844;52.380;7.018;2023-11-19T06:52:00;11.70;99.90
39099;DHT22;24844;52.380;7.018;2023-11-19T06:54:25;11.50;99.90
39099;DHT22;24844;52.380;7.018;2023-11-19T06:56:51;11.60;99.90
39099;DHT22;24844;52.380;7.018;2023-11-19T06:59:17;11.60;99.90
39099;DHT22;24844;52.380;7.018;2023-11-19T07:01:42;11.50;99.90
39099;DHT22;24844;52.380;7.018;2023-11-19T07:04:13;11.50;99.90
39099;DHT22;24844;52.380;7.018;2023-11-19T07:06:39;11.40;99.90
39099;DHT22;24844;52.380;7.018;2023-11-19T07:09:08;11.50;99.90
39099;DHT22;24844;52.380;7.018;2023-11-19T07:11:38;11.30;99.90
39099;DHT22;24844;52.380;7.018;2023-11-19T07:14:04;11.50;99.90
39099;DHT22;24844;52.380;7.018;2023-11-19T07:16:30;11.40;99.90
39099;DHT22;24844;52.380;7.018;2023-11-19T07:18:56;11.50;99.90
39099;DHT22;24844;52.380;7.018;2023-11-19T07:21:21;11.50;99.90
39099;DHT22;24844;52.380;7.018;2023-11-19T07:23:47;11.50;99.90
39099;DHT22;24844;52.380;7.018;2023-11-19T07:26:12;11.50;99.90
39099;DHT22;24844;52.380;7.018;2023-11-19T07:28:38;11.40;99.90
39099;DHT22;24844;52.380;7.018;2023-11-19T07:31:05;11.50;99.90
39099;DHT22;24844;52.380;7.018;2023-11-19T07:33:33;11.60;99.90
39099;DHT22;24844;52.380;7.018;2023-11-19T07:35:59;11.80;99.90
39099;DHT22;24844;52.380;7.018;2023-11-19T07:38:24;11.60;99.90
39099;DHT22;24844;52.380;7.018;2023-11-19T07:40:50;11.80;99.90
39099;DHT22;24844;52.380;7.018;2023-11-19T07:43:15;11.90;99.90
39099;DHT22;24844;52.380;7.018;2023-11-19T07:45:41;11.80;99.90
39099;DHT22;24844;52.380;7.018;2023-11-19T07:48:09;11.80;99.90
39099;DHT22;24844;52.380;7.018;2023-11-19T07:50:35;12.00;99.90
39099;DHT22;24844;52.380;7.018;2023-11-19T07:53:01;11.70;99.90
39099;DHT22;24844;52.380;7.018;2023-11-19T07:55:27;11.80;99.90
39099;DHT22;24844;52.380;7.018;2023-11-19T07:57:53;11.60;99.90
39099;DHT22;24844;52.380;7.018;2023-11-19T08:00:18;11.90;99.90
39099;DHT22;24844;52.380;7.018;2023-11-19T08:02:45;11.80;99.90
39099;DHT22;24844;52.380;7.018;2023-11-19T08:05:10;11.70;99.90
39099;DHT22;24844;52.380;7.018;2023-11-19T08:07:37;11.80;99.90
39099;DHT22;24844;52.380;7.018;2023-11-19T08:10:03;11.80;99.90
39099;DHT22;24844;52.380;7.018;2023-11-19T08:12:30;11.90;99.90
39099;DHT22;24844;52.380;7.018;2023-11-19T08:14:56;11.80;99.90
39099;DHT22;24844;52.380;7.018;2023-11-19T08:17:24;12.10;99.90
39099;DHT22;24844;52.380;7.018;2023-11-19T08:19:49;12.10;99.90
39099;DHT22;24844;52.380;7.018;2023-11-19T08:22:15;12.00;99.90
39099;DHT22;24844;52.380;7.018;2023-11-19T08:24:42;11.70;99.90
39099;DHT22;24844;52.380;7.018;2023-11-19T08:27:08;11.90;99.90
39099;DHT22;24844;52.380;7.018;2023-11-19T08:29:34;11.70;99.90
39099;DHT22;24844;52.380;7.018;2023-11-19T08:32:01;11.80;99.90
39099;DHT22;24844;52.380;7.018;2023-11-19T08:34:27;11.90;99.90
39099;DHT22;24844;52.380;7.018;2023-11-19T08:36:53;11.90;99.90
39099;DHT22;24844;52.380;7.018;2023-11-19T08:39:19;11.80;99.90
39099;DHT22;24844;52.380;7.018;2023-11-19T08:41:46;11.80;99.90
39099;DHT22;24844;52.380;7.018;2023-11-19T08:44:12;11.90;99.90
39099;DHT22;24844;52.380;7.018;2023-11-19T08:46:38;12.00;99.90
39099;DHT22;24844;52.380;7.018;2023-11-19T08:49:05;12.20;99.90
39099;DHT22;24844;52.380;7.018;2023-11-19T08:51:30;12.10;99.90
39099;DHT22;24844;52.380;7.018;2023-11-19T08:53:56;12.10;99.90
39099;DHT22;24844;52.380;7.018;2023-11-19T08:56:23;12.20;99.90
39099;DHT22;24844;52.380;7.018;2023-11-19T08:58:48;12.40;99.90
39099;DHT22;24844;52.380;7.018;2023-11-19T09:01:14;12.30;99.90
39099;DHT22;24844;52.380;7.018;2023-11-19T09:03:39;12.40;99.90
39099;DHT22;24844;52.380;7.018;2023-11-19T09:06:06;12.50;99.90
39099;DHT22;24844;52.380;7.018;2023-11-19T09:08:31;12.40;99.90
39099;DHT22;24844;52.380;7.018;2023-11-19T09:10:57;12.60;99.90
39099;DHT22;24844;52.380;7.018;2023-11-19T09:13:22;12.70;99.90
39099;DHT22;24844;52.380;7.018;2023-11-19T09:15:48;12.80;99.90
39099;DHT22;24844;52.380;7.018;2023-11-19T09:18:14;12.60;99.90
39099;DHT22;24844;52.380;7.018;2023-11-19T09:20:39;12.60;99.90
39099;DHT22;24844;52.380;7.018;2023-11-19T09:23:05;12.60;99.90
39099;DHT22;24844;52.380;7.018;2023-11-19T09:25:31;12.90;99.90
39099;DHT22;24844;52.380;7.018;2023-11-19T09:27:57;12.90;99.90
39099;DHT22;24844;52.380;7.018;2023-11-19T09:30:22;13.00;99.90
39099;DHT22;24844;52.380;7.018;2023-11-19T09:32:48;12.80;99.90
39099;DHT22;24844;52.380;7.018;2023-11-19T09:35:14;12.80;99.90
39099;DHT22;24844;52.380;7.018;2023-11-19T09:37:40;12.60;99.90
39099;DHT22;24844;52.380;7.018;2023-11-19T09:40:06;12.70;99.90
39099;DHT22;24844;52.380;7.018;2023-11-19T09:42:43;12.60;99.90
39099;DHT22;24844;52.380;7.018;2023-11-19T09:45:16;12.70;99.90
39099;DHT22;24844;52.380;7.018;2023-11-19T09:47:45;12.50;99.90
39099;DHT22;24844;52.380;7.018;2023-11-19T09:50:18;12.70;99.90
39099;DHT22;24844;52.380;7.018;2023-11-19T09:52:45;12.70;99.90
39099;DHT22;24844;52.380;7.018;2023-11-19T09:55:11;12.80;99.90
39099;DHT22;24844;52.380;7.018;2023-11-19T09:57:39;12.70;99.90
39099;DHT22;24844;52.380;7.018;2023-11-19T10:00:06;12.80;99.90
39099;DHT22;24844;52.380;7.018;2023-11-19T10:02:33;12.80;99.90
39099;DHT22;24844;52.380;7.018;2023-11-19T10:05:04;12.70;99.90
39099;DHT22;24844;52.380;7.018;2023-11-19T10:07:31;12.70;99.90
39099;DHT22;24844;52.380;7.018;2023-11-19T10:10:02;12.90;99.90
39099;DHT22;24844;52.380;7.018;2023-11-19T10:12:29;13.00;99.90
39099;DHT22;24844;52.380;7.018;2023-11-19T10:14:57;12.80;99.90
39099;DHT22;24844;52.380;7.018;2023-11-19T10:17:36;12.90;99.90
39099;DHT22;24844;52.380;7.018;2023-11-19T10:20:02;13.20;99.90
39099;DHT22;24844;52.380;7.018;2023-11-19T10:22:28;13.20;99.90
39099;DHT22;24844;52.380;7.018;2023-11-19T10:24:54;13.60;99.90
39099;DHT22;24844;52.380;7.018;2023-11-19T10:27:19;13.70;99.90
39099;DHT22;24844;52.380;7.018;2023-11-19T10:29:48;13.70;99.90
39099;DHT22;24844;52.380;7.018;2023-11-19T10:32:14;13.60;99.90
39099;DHT22;24844;52.380;7.018;2023-11-19T10:34:42;13.50;99.90
39099;DHT22;24844;52.380;7.018;2023-11-19T10:37:08;13.60;99.90
39099;DHT22;24844;52.380;7.018;2023-11-19T10:39:53;13.40;99.90
39099;DHT22;24844;52.380;7.018;2023-11-19T10:42:20;13.90;99.90
39099;DHT22;24844;52.380;7.018;2023-11-19T10:44:46;13.90;99.90
39099;DHT22;24844;52.380;7.018;2023-11-19T10:47:13;13.80;99.90
39099;DHT22;24844;52.380;7.018;2023-11-19T10:49:39;13.80;99.90
39099;DHT22;24844;52.380;7.018;2023-11-19T10:52:07;13.80;99.90
39099;DHT22;24844;52.380;7.018;2023-11-19T10:54:34;13.90;99.90
39099;DHT22;24844;52.380;7.018;2023-11-19T10:57:01;13.90;99.90
39099;DHT22;24844;52.380;7.018;2023-11-19T10:59:31;13.80;99.90
39099;DHT22;24844;52.380;7.018;2023-11-19T11:01:57;13.70;99.90
39099;DHT22;24844;52.380;7.018;2023-11-19T11:04:26;14.00;99.90
39099;DHT22;24844;52.380;7.018;2023-11-19T11:06:55;14.00;99.90
39099;DHT22;24844;52.380;7.018;2023-11-19T11:09:26;14.10;99.90
39099;DHT22;24844;52.380;7.018;2023-11-19T11:11:52;14.20;99.90
39099;DHT22;24844;52.380;7.018;2023-11-19T11:14:20;14.00;99.90
39099;DHT22;24844;52.380;7.018;2023-11-19T11:16:46;14.10;99.90
39099;DHT22;24844;52.380;7.018;2023-11-19T11:19:15;14.20;99.90
39099;DHT22;24844;52.380;7.018;2023-11-19T11:21:44;14.40;99.90
39099;DHT22;24844;52.380;7.018;2023-11-19T11:24:16;14.20;99.90
39099;DHT22;24844;52.380;7.018;2023-11-19T11:27:14;14.40;99.90
39099;DHT22;24844;52.380;7.018;2023-11-19T11:32:50;14.70;99.90
39099;DHT22;24844;52.380;7.018;2023-11-19T11:37:47;14.60;99.90
39099;DHT22;24844;52.380;7.018;2023-11-19T11:40:15;14.70;99.90
39099;DHT22;24844;52.380;7.018;2023-11-19T11:42:41;14.80;99.90
39099;DHT22;24844;52.380;7.018;2023-11-19T11:45:11;15.10;99.90
39099;DHT22;24844;52.380;7.018;2023-11-19T11:58:20;14.80;99.90
39099;DHT22;24844;52.380;7.018;2023-11-19T12:00:47;14.70;99.90
39099;DHT22;24844;52.380;7.018;2023-11-19T12:03:13;14.60;99.90
39099;DHT22;24844;52.380;7.018;2023-11-19T12:05:44;14.30;99.90
39099;DHT22;24844;52.380;7.018;2023-11-19T12:08:11;14.60;99.90
39099;DHT22;24844;52.380;7.018;2023-11-19T12:10:51;14.70;99.90
39099;DHT22;24844;52.380;7.018;2023-11-19T12:13:20;14.60;99.90
39099;DHT22;24844;52.380;7.018;2023-11-19T12:18:29;14.60;99.90
39099;DHT22;24844;52.380;7.018;2023-11-19T12:20:56;14.60;99.90
39099;DHT22;24844;52.380;7.018;2023-11-19T12:23:22;14.70;99.90
39099;DHT22;24844;52.380;7.018;2023-11-19T12:25:48;14.50;99.90
39099;DHT22;24844;52.380;7.018;2023-11-19T12:28:15;14.60;99.90
39099;DHT22;24844;52.380;7.018;2023-11-19T12:30:45;14.70;99.90
39099;DHT22;24844;52.380;7.018;2023-11-19T12:33:12;14.60;99.90
39099;DHT22;24844;52.380;7.018;2023-11-19T12:35:41;14.50;99.90
39099;DHT22;24844;52.380;7.018;2023-11-19T12:38:08;14.50;99.90
39099;DHT22;24844;52.380;7.018;2023-11-19T12:40:34;14.50;99.90
39099;DHT22;24844;52.380;7.018;2023-11-19T12:42:59;14.30;99.90
39099;DHT22;24844;52.380;7.018;2023-11-19T12:45:35;14.10;99.90
39099;DHT22;24844;52.380;7.018;2023-11-19T12:48:06;13.70;99.90
39099;DHT22;24844;52.380;7.018;2023-11-19T12:50:57;13.40;99.90
39099;DHT22;24844;52.380;7.018;2023-11-19T12:53:24;13.00;99.90
39099;DHT22;24844;52.380;7.018;2023-11-19T12:55:51;12.70;99.90
39099;DHT22;24844;52.380;7.018;2023-11-19T12:58:33;12.60;99.90
39099;DHT22;24844;52.380;7.018;2023-11-19T13:01:09;12.70;99.90
39099;DHT22;24844;52.380;7.018;2023-11-19T13:03:38;12.80;99.90
39099;DHT22;24844;52.380;7.018;2023-11-19T13:06:08;12.50;99.90
39099;DHT22;24844;52.380;7.018;2023-11-19T13:08:44;12.70;99.90
39099;DHT22;24844;52.380;7.018;2023-11-19T13:11:11;12.60;99.90
39099;DHT22;24844;52.380;7.018;2023-11-19T13:14:03;12.70;99.90
39099;DHT22;24844;52.380;7.018;2023-11-19T13:16:35;12.60;99.90
39099;DHT22;24844;52.380;7.018;2023-11-19T13:19:01;12.60;99.90
39099;DHT22;24844;52.380;7.018;2023-11-19T13:21:28;13.00;99.90
39099;DHT22;24844;52.380;7.018;2023-11-19T13:23:55;12.70;99.90
39099;DHT22;24844;52.380;7.018;2023-11-19T13:26:20;12.70;99.90
39099;DHT22;24844;52.380;7.018;2023-11-19T13:28:46;12.60;99.90
39099;DHT22;24844;52.380;7.018;2023-11-19T13:31:12;12.60;99.90
39099;DHT22;24844;52.380;7.018;2023-11-19T13:33:37;12.70;99.90
39099;DHT22;24844;52.380;7.018;2023-11-19T13:36:04;12.70;99.90
39099;DHT22;24844;52.380;7.018;2023-11-19T13:38:36;12.80;99.90
39099;DHT22;24844;52.380;7.018;2023-11-19T13:41:03;12.80;99.90
39099;DHT22;24844;52.380;7.018;2023-11-19T13:43:29;12.60;99.90
39099;DHT22;24844;52.380;7.018;2023-11-19T13:45:55;12.60;99.90
39099;DHT22;24844;52.380;7.018;2023-11-19T13:48:21;12.60;99.90
39099;DHT22;24844;52.380;7.018;2023-11-19T13:50:47;12.60;99.90
39099;DHT22;24844;52.380;7.018;2023-11-19T13:53:13;12.60;99.90
39099;DHT22;24844;52.380;7.018;2023-11-19T13:55:38;12.50;99.90
39099;DHT22;24844;52.380;7.018;2023-11-19T13:58:04;12.70;99.90
39099;DHT22;24844;52.380;7.018;2023-11-19T14:00:29;12.60;99.90
39099;DHT22;24844;52.380;7.018;2023-11-19T14:02:55;12.50;99.90
39099;DHT22;24844;52.380;7.018;2023-11-19T14:05:21;12.20;99.90
39099;DHT22;24844;52.380;7.018;2023-11-19T14:07:46;12.10;99.90
39099;DHT22;24844;52.380;7.018;2023-11-19T14:10:16;11.80;99.90
39099;DHT22;24844;52.380;7.018;2023-11-19T14:12:42;12.00;99.90
39099;DHT22;24844;52.380;7.018;2023-11-19T14:15:09;11.90;99.90
39099;DHT22;24844;52.380;7.018;2023-11-19T14:17:35;12.00;99.90
39099;DHT22;24844;52.380;7.018;2023-11-19T14:20:02;12.10;99.90
39099;DHT22;24844;52.380;7.018;2023-11-19T14:22:41;11.90;99.90
39099;DHT22;24844;52.380;7.018;2023-11-19T14:25:07;12.10;99.90
39099;DHT22;24844;52.380;7.018;2023-11-19T14:27:38;12.20;99.90
39099;DHT22;24844;52.380;7.018;2023-11-19T14:30:11;12.20;99.90
39099;DHT22;24844;52.380;7.018;2023-11-19T14:32:39;12.30;99.90
39099;DHT22;24844;52.380;7.018;2023-11-19T14:35:06;12.30;99.90
39099;DHT22;24844;52.380;7.018;2023-11-19T14:37:32;12.30;99.90
39099;DHT22;24844;52.380;7.018;2023-11-19T14:39:57;12.30;99.90
39099;DHT22;24844;52.380;7.018;2023-11-19T14:42:23;12.30;99.90
39099;DHT22;24844;52.380;7.018;2023-11-19T14:44:50;12.20;99.90
39099;DHT22;24844;52.380;7.018;2023-11-19T14:47:18;12.10;99.90
39099;DHT22;24844;52.380;7.018;2023-11-19T14:49:44;12.30;99.90
39099;DHT22;24844;52.380;7.018;2023-11-19T14:52:09;12.30;99.90
39099;DHT22;24844;52.380;7.018;2023-11-19T14:54:35;12.20;99.90
39099;DHT22;24844;52.380;7.018;2023-11-19T14:57:01;12.00;99.90
39099;DHT22;24844;52.380;7.018;2023-11-19T14:59:27;12.00;99.90
39099;DHT22;24844;52.380;7.018;2023-11-19T15:01:53;12.20;99.90
39099;DHT22;24844;52.380;7.018;2023-11-19T15:04:19;12.20;99.90
39099;DHT22;24844;52.380;7.018;2023-11-19T15:06:44;12.00;99.90
39099;DHT22;24844;52.380;7.018;2023-11-19T15:09:10;12.20;99.90
39099;DHT22;24844;52.380;7.018;2023-11-19T15:11:42;12.20;99.90
39099;DHT22;24844;52.380;7.018;2023-11-19T15:14:07;12.10;99.90
39099;DHT22;24844;52.380;7.018;2023-11-19T15:16:33;12.00;99.90
39099;DHT22;24844;52.380;7.018;2023-11-19T15:19:00;12.40;99.90
39099;DHT22;24844;52.380;7.018;2023-11-19T15:21:26;12.30;99.90
39099;DHT22;24844;52.380;7.018;2023-11-19T15:23:52;12.30;99.90
39099;DHT22;24844;52.380;7.018;2023-11-19T15:26:18;12.40;99.90
39099;DHT22;24844;52.380;7.018;2023-11-19T15:28:44;12.30;99.90
39099;DHT22;24844;52.380;7.018;2023-11-19T15:31:10;12.30;99.90
39099;DHT22;24844;52.380;7.018;2023-11-19T15:33:36;12.40;99.90
39099;DHT22;24844;52.380;7.018;2023-11-19T15:36:01;12.40;99.90
39099;DHT22;24844;52.380;7.018;2023-11-19T15:38:28;12.40;99.90
39099;DHT22;24844;52.380;7.018;2023-11-19T15:40:54;12.20;99.90
39099;DHT22;24844;52.380;7.018;2023-11-19T15:43:20;12.10;99.90
39099;DHT22;24844;52.380;7.018;2023-11-19T15:45:46;11.90;99.90
39099;DHT22;24844;52.380;7.018;2023-11-19T15:48:11;12.00;99.90